Aérodrome :
LOGIN :

S'inscrire | Disclaimer

   EN    FR    IT 

 










Légende :    VFR   VFR Marginal   IFR   IFR Intensif   IFR Très Intensif
Visi : 
Plafond : 
>= 8 km
>= 3000ft
5 à 8 km
1000 à 3000 ft
1500m à 5 km
500 à 1000 ft
800 à 1500m
200 à 500 ft
< 800m
< 200 ft
Symboles :   Orages  Brouillard  Fortes neiges  Fortes précipitations  Vent > 20 kt
SIGMETs :   Divers  Orages  Givrage  Turbulence  Onde Orograph.  Cendres Volcan.






- Altitude de l'aérodrome : 215 ft
- Code IATA : ABZ


EGPD - Aberdeen / Dyce

DERNIER METAR :
  • 110320Z AUTO 22009KT 9999 NCD 04/M02 Q0990 NOSIG

METARs EXPIRÉS :
  • 110250Z AUTO 23009KT 9999 NCD 04/M01 Q0990 NOSIG
  • 110220Z AUTO 22007KT 9999 NCD 04/M00 Q0989 NOSIG
  • 110150Z AUTO 24011KT 9999 NCD 05/M00 Q0989 NOSIG
  • 110120Z AUTO 23010KT 210V270 9999 NCD 04/M00 Q0989
  • 110050Z AUTO 22011KT 9999 NCD 04/00 Q0988

TAF TAF EGPD
Valide du 11 à 00h jusqu'au 12 à 00h UTC


102255Z 1100/1124 23009KT 9999 FEW020
PROB30
TEMPO 1100/1106 24015G25KT
TEMPO 1106/1118 24020G30KT



MET'MAP, la Météo Aéronautique d'un coup d'oeil ! - Copyright ORBIFLY Décembre 2007 - Disclaimer

ORBIFLY MET'MAP TEAM :

Programmation & Développement : Alexandra Zaïnal
Sur une idée originale de : Baudouin d'Aumeries
Assistance à la programmation : Marc-Olivier Méhu
Soutien technique & logistique : Manuel Goepfert

Contact : metmap@orbifly.com




SOURCES & CREDITS :

   NOAA